createdAt,value
2023-01-25T00:01:06.516Z,6.22
2023-01-25T00:04:11.968Z,5.65
2023-01-25T00:07:19.030Z,6.60
2023-01-25T00:10:24.407Z,6.40
2023-01-25T00:13:37.463Z,5.47
2023-01-25T00:16:45.881Z,5.05
2023-01-25T00:19:55.535Z,5.57
2023-01-25T00:23:03.454Z,6.45
2023-01-25T00:26:10.265Z,4.85
2023-01-25T00:29:19.596Z,6.55
2023-01-25T00:32:32.295Z,4.25
2023-01-25T00:35:38.279Z,5.30
2023-01-25T00:38:47.603Z,6.80
2023-01-25T00:42:03.464Z,4.40
2023-01-25T00:45:18.773Z,6.35
2023-01-25T00:48:32.044Z,4.83
2023-01-25T00:51:40.470Z,7.65
2023-01-25T00:54:45.681Z,7.43
2023-01-25T00:57:51.364Z,6.68
2023-01-25T01:01:13.746Z,5.80
2023-01-25T01:04:25.182Z,5.93
2023-01-25T01:07:41.061Z,6.05
2023-01-25T01:10:50.765Z,5.07
2023-01-25T01:14:00.265Z,7.45
2023-01-25T01:17:11.694Z,5.80
2023-01-25T01:20:29.395Z,7.45
2023-01-25T01:23:39.364Z,6.10
2023-01-25T01:26:44.877Z,3.83
2023-01-25T01:29:50.594Z,7.03
2023-01-25T01:33:01.058Z,5.93
2023-01-25T01:36:10.099Z,7.72
2023-01-25T01:39:15.147Z,6.40
2023-01-25T01:42:22.203Z,6.03
2023-01-25T01:45:45.658Z,4.97
2023-01-25T01:48:58.639Z,6.75
2023-01-25T01:52:04.895Z,6.40
2023-01-25T01:55:11.966Z,6.22
2023-01-25T01:58:16.963Z,4.95
2023-01-25T02:01:24.564Z,6.95
2023-01-25T02:04:33.241Z,7.53
2023-01-25T02:07:40.076Z,5.93
2023-01-25T02:10:45.913Z,7.35
2023-01-25T02:13:51.905Z,8.35
2023-01-25T02:16:57.348Z,7.82
2023-01-25T02:20:12.987Z,8.35
2023-01-25T02:23:22.338Z,9.77
2023-01-25T02:26:31.166Z,8.93
2023-01-25T02:29:36.719Z,7.70
2023-01-25T02:32:42.853Z,8.07
2023-01-25T02:35:52.671Z,9.88
2023-01-25T02:38:59.552Z,9.18
2023-01-25T02:42:10.326Z,7.63
2023-01-25T02:45:19.645Z,10.77
2023-01-25T02:48:25.039Z,10.32
2023-01-25T02:51:31.271Z,8.05
2023-01-25T02:54:38.271Z,8.32
2023-01-25T02:57:48.891Z,9.68
2023-01-25T03:00:55.076Z,8.45
2023-01-25T03:04:00.980Z,7.55
2023-01-25T03:07:06.813Z,7.40
2023-01-25T03:10:16.907Z,6.57
2023-01-25T03:13:25.576Z,7.97
2023-01-25T03:16:31.455Z,7.38
2023-01-25T03:19:39.399Z,7.22
2023-01-25T03:22:46.129Z,7.43
2023-01-25T03:26:01.763Z,6.82
2023-01-25T03:29:09.962Z,5.53
2023-01-25T03:32:15.094Z,5.97
2023-01-25T03:35:22.124Z,7.82
2023-01-25T03:38:28.395Z,5.68
2023-01-25T03:41:36.197Z,8.18
2023-01-25T03:44:45.688Z,5.85
2023-01-25T03:47:53.582Z,5.18
2023-01-25T03:50:59.849Z,5.20
2023-01-25T03:54:08.582Z,6.18
2023-01-25T03:57:13.893Z,6.38
2023-01-25T04:00:26.774Z,7.55
2023-01-25T04:03:34.080Z,7.25
2023-01-25T04:06:41.822Z,6.13
2023-01-25T04:09:46.978Z,6.90
2023-01-25T04:12:53.181Z,5.00
2023-01-25T04:16:01.518Z,6.13
2023-01-25T04:19:08.063Z,6.10
2023-01-25T04:22:13.178Z,5.47
2023-01-25T04:25:19.159Z,7.10
2023-01-25T04:28:24.628Z,6.22
2023-01-25T04:31:33.499Z,4.28
2023-01-25T04:34:38.910Z,6.07
2023-01-25T04:37:46.043Z,6.03
2023-01-25T04:40:53.334Z,4.55
2023-01-25T04:43:59.237Z,5.60
2023-01-25T04:47:07.575Z,4.80
2023-01-25T04:50:13.837Z,5.30
2023-01-25T04:53:23.080Z,4.32
2023-01-25T04:56:31.184Z,3.20
2023-01-25T04:59:36.380Z,4.78
2023-01-25T05:02:48.313Z,4.50
2023-01-25T05:05:54.839Z,5.13
2023-01-25T05:09:01.046Z,4.93
2023-01-25T05:12:11.858Z,5.30
2023-01-25T05:15:20.497Z,4.32
2023-01-25T05:18:42.583Z,5.20
2023-01-25T05:22:01.934Z,4.28
2023-01-25T05:25:27.599Z,4.60
2023-01-25T05:28:32.579Z,4.30
2023-01-25T05:31:37.686Z,4.68
2023-01-25T05:34:46.257Z,5.40
2023-01-25T05:37:51.849Z,4.68
2023-01-25T05:41:02.896Z,4.40
2023-01-25T05:44:10.037Z,5.15
2023-01-25T05:47:16.642Z,4.70
2023-01-25T05:50:26.457Z,3.40
2023-01-25T05:53:32.331Z,5.25
2023-01-25T05:56:37.619Z,4.50
2023-01-25T05:59:42.919Z,4.07
2023-01-25T06:02:48.083Z,4.10
2023-01-25T06:06:02.014Z,4.82
2023-01-25T06:09:06.983Z,5.10
2023-01-25T06:12:15.069Z,4.68
2023-01-25T06:15:26.325Z,4.88
2023-01-25T06:18:32.616Z,5.03
2023-01-25T06:21:40.208Z,5.35
2023-01-25T06:24:46.586Z,4.78
2023-01-25T06:27:51.771Z,4.97
2023-01-25T06:30:57.261Z,3.40
2023-01-25T06:34:04.725Z,4.13
2023-01-25T06:37:13.206Z,3.30
2023-01-25T06:40:19.148Z,5.65
2023-01-25T06:43:24.796Z,4.93
2023-01-25T06:46:30.863Z,4.80
2023-01-25T06:49:39.071Z,4.53
2023-01-25T06:52:47.413Z,4.65
2023-01-25T06:55:59.815Z,4.10
2023-01-25T06:59:04.838Z,5.00
2023-01-25T07:02:12.619Z,3.63
2023-01-25T07:05:17.858Z,4.40
2023-01-25T07:08:25.941Z,4.40
2023-01-25T07:11:31.126Z,4.85
2023-01-25T07:14:41.037Z,4.65
2023-01-25T07:17:45.936Z,4.25
2023-01-25T07:20:51.589Z,5.10
2023-01-25T07:24:02.773Z,4.40
2023-01-25T07:27:09.574Z,3.67
2023-01-25T07:30:15.436Z,3.17
2023-01-25T07:33:21.050Z,5.25
2023-01-25T07:36:33.312Z,4.32
2023-01-25T07:39:48.272Z,4.53
2023-01-25T07:42:54.135Z,5.03
2023-01-25T07:46:03.543Z,3.88
2023-01-25T07:49:08.742Z,4.95
2023-01-25T07:52:14.357Z,3.13
2023-01-25T07:55:24.480Z,4.05
2023-01-25T07:58:31.057Z,4.53
2023-01-25T08:01:37.775Z,4.97
2023-01-25T08:04:45.737Z,5.70
2023-01-25T08:07:51.220Z,4.53
2023-01-25T08:10:59.618Z,5.22
2023-01-25T08:14:07.012Z,4.57
2023-01-25T08:17:12.524Z,4.70
2023-01-25T08:20:17.640Z,5.65
2023-01-25T08:23:23.871Z,4.78
2023-01-25T08:26:34.976Z,5.03
2023-01-25T08:29:40.403Z,4.25
2023-01-25T08:32:45.673Z,4.03
2023-01-25T08:35:57.575Z,5.15
2023-01-25T08:39:04.488Z,4.50
2023-01-25T08:42:12.522Z,2.97
2023-01-25T08:45:17.596Z,4.90
2023-01-25T08:48:23.359Z,5.22
2023-01-25T08:51:31.972Z,5.80
2023-01-25T08:54:39.471Z,4.10
2023-01-25T08:57:47.217Z,4.63
2023-01-25T09:00:53.147Z,4.90
2023-01-25T09:03:58.325Z,5.38
2023-01-25T09:07:03.888Z,4.15
2023-01-25T09:10:10.731Z,4.82
2023-01-25T09:13:25.198Z,5.00
2023-01-25T09:16:31.360Z,4.57
2023-01-25T09:19:37.187Z,4.65
2023-01-25T09:22:42.138Z,5.53
2023-01-25T09:25:48.328Z,4.90
2023-01-25T09:28:56.685Z,3.55
2023-01-25T09:32:03.792Z,4.05
2023-01-25T09:35:09.620Z,3.75
2023-01-25T09:38:15.948Z,5.65
2023-01-25T09:41:29.024Z,5.25
2023-01-25T09:44:44.753Z,5.72
2023-01-25T09:47:52.904Z,5.97
2023-01-25T09:51:08.810Z,6.13
2023-01-25T09:54:17.538Z,6.55
2023-01-25T09:57:27.653Z,6.82
2023-01-25T10:00:36.863Z,6.63
2023-01-25T10:03:46.172Z,7.18
2023-01-25T10:07:01.117Z,5.53
2023-01-25T10:10:12.269Z,8.02
2023-01-25T10:13:18.591Z,8.25
2023-01-25T10:16:33.174Z,10.50
2023-01-25T10:22:55.879Z,13.57
2023-01-25T10:26:04.431Z,15.18
2023-01-25T10:29:12.206Z,15.23
2023-01-25T10:32:21.932Z,17.08
2023-01-25T10:35:35.911Z,19.27
2023-01-25T10:38:43.851Z,18.23
2023-01-25T10:41:52.351Z,15.02
2023-01-25T10:45:00.174Z,16.63
2023-01-25T10:48:09.972Z,17.08
2023-01-25T10:51:31.031Z,17.73
2023-01-25T10:54:37.842Z,15.88
2023-01-25T10:57:46.462Z,15.20
2023-01-25T11:00:55.585Z,13.70
2023-01-25T11:04:05.061Z,15.05
2023-01-25T11:07:27.178Z,17.60
2023-01-25T11:10:33.776Z,16.30
2023-01-25T11:13:43.188Z,18.45
2023-01-25T11:16:49.393Z,17.38
2023-01-25T11:20:10.715Z,15.82
2023-01-25T11:23:37.192Z,14.23
2023-01-25T11:26:48.632Z,10.88
2023-01-25T11:30:09.285Z,14.07
2023-01-25T11:33:17.044Z,14.40
2023-01-25T11:36:25.944Z,14.55
2023-01-25T11:39:43.261Z,13.60
2023-01-25T11:42:58.575Z,12.50
2023-01-25T11:46:10.141Z,16.23
2023-01-25T11:52:27.348Z,14.05
2023-01-25T11:55:34.919Z,12.80
2023-01-25T11:58:53.313Z,18.05
2023-01-25T12:02:04.929Z,14.95
2023-01-25T12:05:22.093Z,15.73
2023-01-25T12:08:37.804Z,16.83
2023-01-25T12:12:00.878Z,19.73
2023-01-25T12:15:16.321Z,20.75
2023-01-25T12:18:30.618Z,16.25
2023-01-25T12:21:42.107Z,16.90
2023-01-25T12:24:53.488Z,15.00
2023-01-25T12:28:06.943Z,14.70
2023-01-25T12:31:22.537Z,16.40
2023-01-25T12:34:30.840Z,16.23
2023-01-25T12:37:42.652Z,12.68
2023-01-25T12:40:50.675Z,14.32
2023-01-25T12:43:57.566Z,14.73
2023-01-25T12:47:08.495Z,14.88
2023-01-25T12:50:21.138Z,11.77
2023-01-25T12:53:31.578Z,14.73
2023-01-25T12:56:41.207Z,11.70
2023-01-25T12:59:49.705Z,11.38
2023-01-25T13:03:15.117Z,11.93
2023-01-25T13:06:31.193Z,13.07
2023-01-25T13:09:41.176Z,14.15
2023-01-25T13:12:56.093Z,14.70
2023-01-25T13:16:21.487Z,13.55
2023-01-25T13:19:42.367Z,14.65
2023-01-25T13:23:01.250Z,10.05
2023-01-25T13:26:26.136Z,12.98
2023-01-25T13:29:57.860Z,11.23
2023-01-25T13:33:09.970Z,12.10
2023-01-25T13:36:30.600Z,13.77
2023-01-25T13:39:57.904Z,11.55
2023-01-25T13:43:09.262Z,10.48
2023-01-25T13:46:16.815Z,11.70
2023-01-25T13:49:25.674Z,12.13
2023-01-25T13:52:32.850Z,11.52
2023-01-25T13:55:47.432Z,9.55
2023-01-25T13:58:53.179Z,6.75
2023-01-25T14:01:58.837Z,10.23
2023-01-25T14:05:08.417Z,9.35
2023-01-25T14:08:16.731Z,8.60
2023-01-25T14:11:26.687Z,9.70
2023-01-25T14:14:33.597Z,10.20
2023-01-25T14:17:43.509Z,9.43
2023-01-25T14:20:52.192Z,8.02
2023-01-25T14:23:57.262Z,8.20
2023-01-25T14:27:08.114Z,6.28
2023-01-25T14:30:19.111Z,7.28
2023-01-25T14:33:26.212Z,6.72
2023-01-25T14:36:33.759Z,9.48
2023-01-25T14:39:39.585Z,9.88
2023-01-25T14:42:47.403Z,8.27
2023-01-25T14:45:53.328Z,9.15
2023-01-25T14:49:14.395Z,8.05
2023-01-25T14:52:21.991Z,8.40
2023-01-25T14:55:28.432Z,8.82
2023-01-25T14:58:36.535Z,7.07
2023-01-25T15:01:49.940Z,7.55
2023-01-25T15:05:11.020Z,9.40
2023-01-25T15:08:29.160Z,8.13
2023-01-25T15:11:45.615Z,6.57
2023-01-25T15:14:57.264Z,7.20
2023-01-25T15:18:05.136Z,7.15
2023-01-25T15:21:11.782Z,7.57
2023-01-25T15:24:17.748Z,9.50
2023-01-25T15:27:25.421Z,8.85
2023-01-25T15:30:33.594Z,8.73
2023-01-25T15:33:40.160Z,7.15
2023-01-25T15:36:45.523Z,5.53
2023-01-25T15:39:54.193Z,8.63
2023-01-25T15:43:00.043Z,9.13
2023-01-25T15:46:24.543Z,8.52
2023-01-25T15:49:39.590Z,8.40
2023-01-25T15:52:44.990Z,8.88
2023-01-25T15:56:04.970Z,7.05
2023-01-25T15:59:11.884Z,8.57
2023-01-25T16:02:27.304Z,9.60
2023-01-25T16:05:36.477Z,8.90
2023-01-25T16:12:06.540Z,8.77
2023-01-25T16:15:21.592Z,11.10
2023-01-25T16:18:29.361Z,9.23
2023-01-25T16:21:35.208Z,9.73
2023-01-25T16:24:40.391Z,10.45
2023-01-25T16:27:56.550Z,10.20
2023-01-25T16:31:01.532Z,11.18
2023-01-25T16:34:10.954Z,11.10
2023-01-25T16:37:18.681Z,10.07
2023-01-25T16:40:25.577Z,9.40
2023-01-25T16:43:42.256Z,10.43
2023-01-25T16:46:49.131Z,9.65
2023-01-25T16:50:00.718Z,8.60
2023-01-25T16:56:28.209Z,10.48
2023-01-25T16:59:33.921Z,11.02
2023-01-25T17:02:41.941Z,8.55
2023-01-25T17:05:55.298Z,9.77
2023-01-25T17:09:12.705Z,8.60
2023-01-25T17:12:27.601Z,8.77
2023-01-25T17:15:33.332Z,8.77
2023-01-25T17:18:39.178Z,10.43
2023-01-25T17:21:46.962Z,9.85
2023-01-25T17:24:55.191Z,9.35
2023-01-25T17:28:00.071Z,10.57
2023-01-25T17:31:07.009Z,10.38
2023-01-25T17:34:16.569Z,11.02
2023-01-25T17:37:24.565Z,11.57
2023-01-25T17:40:29.555Z,9.90
2023-01-25T17:43:34.941Z,10.60
2023-01-25T17:46:39.943Z,11.45
2023-01-25T17:49:52.274Z,10.60
2023-01-25T17:52:59.790Z,11.35
2023-01-25T17:56:05.859Z,10.38
2023-01-25T17:59:14.202Z,9.82
2023-01-25T18:02:21.206Z,9.95
2023-01-25T18:05:26.607Z,9.15
2023-01-25T18:08:35.750Z,8.57
2023-01-25T18:11:44.869Z,8.38
2023-01-25T18:14:51.323Z,11.00
2023-01-25T18:17:56.559Z,8.95
2023-01-25T18:21:05.934Z,8.25
2023-01-25T18:24:29.982Z,8.32
2023-01-25T18:27:38.723Z,9.93
2023-01-25T18:30:54.488Z,11.10
2023-01-25T18:34:00.571Z,9.90
2023-01-25T18:37:18.100Z,10.77
2023-01-25T18:40:30.004Z,11.82
2023-01-25T18:43:35.038Z,9.60
2023-01-25T18:46:43.121Z,9.77
2023-01-25T18:49:49.427Z,11.68
2023-01-25T18:52:59.277Z,11.30
2023-01-25T18:56:09.823Z,11.45
2023-01-25T18:59:19.454Z,11.73
2023-01-25T19:02:26.160Z,13.02
2023-01-25T19:05:31.387Z,11.02
2023-01-25T19:08:40.951Z,12.00
2023-01-25T19:11:49.050Z,11.65
2023-01-25T19:14:54.404Z,12.70
2023-01-25T19:17:59.883Z,14.60
2023-01-25T19:21:09.910Z,13.27
2023-01-25T19:24:18.663Z,10.48
2023-01-25T19:27:27.055Z,15.38
2023-01-25T19:30:32.469Z,16.27
2023-01-25T19:33:40.338Z,18.25
2023-01-25T19:36:54.122Z,16.67
2023-01-25T19:39:59.137Z,20.20
2023-01-25T19:43:09.064Z,23.05
2023-01-25T19:46:16.808Z,19.95
2023-01-25T19:49:23.717Z,21.65
2023-01-25T19:52:38.737Z,18.13
2023-01-25T19:56:09.360Z,20.52
2023-01-25T20:11:23.231Z,23.30
2023-01-25T20:14:30.991Z,24.05
2023-01-25T20:17:47.478Z,22.52
2023-01-25T20:21:02.356Z,24.70
2023-01-25T20:24:18.184Z,24.88
2023-01-25T20:31:13.175Z,20.75
2023-01-25T20:34:21.568Z,22.75
2023-01-25T20:37:29.716Z,19.23
2023-01-25T20:40:36.151Z,23.20
2023-01-25T20:43:42.415Z,21.02
2023-01-25T20:46:51.610Z,22.77
2023-01-25T20:49:58.079Z,20.23
2023-01-25T20:53:06.618Z,20.30
2023-01-25T20:56:15.469Z,16.33
2023-01-25T20:59:28.167Z,20.08
2023-01-25T21:02:35.732Z,19.70
2023-01-25T21:05:42.729Z,18.13
2023-01-25T21:09:10.918Z,17.27
2023-01-25T21:12:28.824Z,16.42
2023-01-25T21:15:59.931Z,15.18
2023-01-25T21:19:14.161Z,14.85
2023-01-25T21:22:22.817Z,13.13
2023-01-25T21:25:33.791Z,13.32
2023-01-25T21:28:42.871Z,13.52
2023-01-25T21:31:51.237Z,12.40
2023-01-25T21:35:00.050Z,12.35
2023-01-25T21:38:14.593Z,11.82
2023-01-25T21:41:34.188Z,9.20
2023-01-25T21:44:54.294Z,10.50
2023-01-25T21:48:02.667Z,11.05
2023-01-25T21:51:24.235Z,9.27
2023-01-25T21:54:32.312Z,10.15
2023-01-25T21:58:03.132Z,10.57
2023-01-25T22:01:10.573Z,11.68
2023-01-25T22:04:18.225Z,10.25
2023-01-25T22:07:25.602Z,10.60
2023-01-25T22:10:31.508Z,10.48
2023-01-25T22:13:46.755Z,11.27
2023-01-25T22:16:55.563Z,10.90
2023-01-25T22:20:00.671Z,9.13
2023-01-25T22:23:20.479Z,9.95
2023-01-25T22:26:28.771Z,7.47
2023-01-25T22:29:38.668Z,9.52
2023-01-25T22:32:43.924Z,9.63
2023-01-25T22:35:50.141Z,9.10
2023-01-25T22:38:55.172Z,9.63
2023-01-25T22:42:09.004Z,9.98
2023-01-25T22:48:23.738Z,10.18
2023-01-25T22:51:32.371Z,10.00
2023-01-25T22:54:40.843Z,8.93
2023-01-25T22:57:45.787Z,9.82
2023-01-25T23:00:51.439Z,10.18
2023-01-25T23:04:00.534Z,10.07
2023-01-25T23:07:12.320Z,10.00
2023-01-25T23:10:17.961Z,9.77
2023-01-25T23:13:23.293Z,8.98
2023-01-25T23:16:29.854Z,10.52
2023-01-25T23:19:38.118Z,9.65
2023-01-25T23:22:52.193Z,8.77
2023-01-25T23:25:58.473Z,8.18
2023-01-25T23:29:03.359Z,9.00
2023-01-25T23:32:09.332Z,9.52
2023-01-25T23:35:16.887Z,9.60
2023-01-25T23:38:22.290Z,11.40
2023-01-25T23:41:28.045Z,9.45
2023-01-25T23:44:33.538Z,8.68
2023-01-25T23:47:38.609Z,10.23
2023-01-25T23:50:47.364Z,10.85
2023-01-25T23:53:53.595Z,9.75
2023-01-25T23:56:59.790Z,11.13
